sensor_id;sensor_type;location;lat;lon;timestamp;temperature;humidity
421;DHT22;63667;49.046;8.468;2023-04-03T12:08:28;11.10;99.60
421;DHT22;63667;49.046;8.468;2023-04-03T12:16:26;9.40;99.60
421;DHT22;63667;49.046;8.468;2023-04-03T12:18:56;9.20;99.60
421;DHT22;63667;49.046;8.468;2023-04-03T12:37:30;10.80;99.60
421;DHT22;63667;49.046;8.468;2023-04-03T12:45:24;11.10;99.60
421;DHT22;63667;49.046;8.468;2023-04-03T12:47:53;10.80;99.60
421;DHT22;63667;49.046;8.468;2023-04-03T12:50:23;10.30;99.60
421;DHT22;63667;49.046;8.468;2023-04-03T12:53:12;10.40;99.60
421;DHT22;63667;49.046;8.468;2023-04-03T12:55:40;10.40;99.60
421;DHT22;63667;49.046;8.468;2023-04-03T12:58:36;10.30;99.60
421;DHT22;63667;49.046;8.468;2023-04-03T13:01:14;10.30;99.60
421;DHT22;63667;49.046;8.468;2023-04-03T13:03:56;10.30;99.60
421;DHT22;63667;49.046;8.468;2023-04-03T13:06:27;10.30;99.60
421;DHT22;63667;49.046;8.468;2023-04-03T13:08:58;9.70;99.60
421;DHT22;63667;49.046;8.468;2023-04-03T13:11:39;9.50;99.60
421;DHT22;63667;49.046;8.468;2023-04-03T13:14:33;9.90;99.60
421;DHT22;63667;49.046;8.468;2023-04-03T13:17:06;9.80;99.60
421;DHT22;63667;49.046;8.468;2023-04-03T13:19:37;10.20;99.60
421;DHT22;63667;49.046;8.468;2023-04-03T13:22:49;10.10;99.60
421;DHT22;63667;49.046;8.468;2023-04-03T13:25:03;10.00;99.60
421;DHT22;63667;49.046;8.468;2023-04-03T13:27:32;10.00;99.60
421;DHT22;63667;49.046;8.468;2023-04-03T13:30:04;10.20;99.60
421;DHT22;63667;49.046;8.468;2023-04-03T13:32:32;10.20;99.60
421;DHT22;63667;49.046;8.468;2023-04-03T13:34:59;10.20;99.60
421;DHT22;63667;49.046;8.468;2023-04-03T13:37:28;10.10;99.60
421;DHT22;63667;49.046;8.468;2023-04-03T13:42:37;10.50;99.60
421;DHT22;63667;49.046;8.468;2023-04-03T13:45:28;13.40;99.60
421;DHT22;63667;49.046;8.468;2023-04-03T13:48:17;13.60;99.60
421;DHT22;63667;49.046;8.468;2023-04-03T13:51:13;13.80;99.60
421;DHT22;63667;49.046;8.468;2023-04-03T13:53:46;12.30;99.60
421;DHT22;63667;49.046;8.468;2023-04-03T13:59:04;11.50;99.60
421;DHT22;63667;49.046;8.468;2023-04-03T14:04:31;10.30;99.60
421;DHT22;63667;49.046;8.468;2023-04-03T14:06:59;10.40;99.60
421;DHT22;63667;49.046;8.468;2023-04-03T14:09:27;10.10;99.60
421;DHT22;63667;49.046;8.468;2023-04-03T14:11:59;10.00;99.60
421;DHT22;63667;49.046;8.468;2023-04-03T14:14:30;10.40;99.60
421;DHT22;63667;49.046;8.468;2023-04-03T14:17:00;10.50;99.60
421;DHT22;63667;49.046;8.468;2023-04-03T14:19:33;9.80;99.60
421;DHT22;63667;49.046;8.468;2023-04-03T14:22:06;9.20;99.60
421;DHT22;63667;49.046;8.468;2023-04-03T14:24:38;9.30;99.60
421;DHT22;63667;49.046;8.468;2023-04-03T14:27:15;9.10;99.60
421;DHT22;63667;49.046;8.468;2023-04-03T14:29:42;9.10;99.60
421;DHT22;63667;49.046;8.468;2023-04-03T14:32:13;9.10;99.60
421;DHT22;63667;49.046;8.468;2023-04-03T14:34:41;9.20;99.60
421;DHT22;63667;49.046;8.468;2023-04-03T14:37:11;9.00;99.60
421;DHT22;63667;49.046;8.468;2023-04-03T14:39:39;9.20;99.60
421;DHT22;63667;49.046;8.468;2023-04-03T14:42:10;9.30;99.60
421;DHT22;63667;49.046;8.468;2023-04-03T14:44:38;9.30;99.60
421;DHT22;63667;49.046;8.468;2023-04-03T14:47:05;9.30;99.60
421;DHT22;63667;49.046;8.468;2023-04-03T14:49:33;9.20;99.60
421;DHT22;63667;49.046;8.468;2023-04-03T14:52:00;9.40;99.60
421;DHT22;63667;49.046;8.468;2023-04-03T14:54:28;9.60;99.60
421;DHT22;63667;49.046;8.468;2023-04-03T14:56:57;9.90;99.60
421;DHT22;63667;49.046;8.468;2023-04-03T14:59:26;10.00;99.60
421;DHT22;63667;49.046;8.468;2023-04-03T15:01:53;10.20;99.60
421;DHT22;63667;49.046;8.468;2023-04-03T15:04:21;12.50;99.60
421;DHT22;63667;49.046;8.468;2023-04-03T15:06:49;12.70;99.60
421;DHT22;63667;49.046;8.468;2023-04-03T15:09:26;11.50;99.60
421;DHT22;63667;49.046;8.468;2023-04-03T15:11:55;10.30;99.60
421;DHT22;63667;49.046;8.468;2023-04-03T15:14:22;9.90;99.60
421;DHT22;63667;49.046;8.468;2023-04-03T15:16:49;10.00;99.60
421;DHT22;63667;49.046;8.468;2023-04-03T15:19:16;10.40;99.60
421;DHT22;63667;49.046;8.468;2023-04-03T15:21:44;10.80;99.60
421;DHT22;63667;49.046;8.468;2023-04-03T15:24:11;11.10;99.60
421;DHT22;63667;49.046;8.468;2023-04-03T15:26:38;11.20;99.60
421;DHT22;63667;49.046;8.468;2023-04-03T15:29:05;11.60;99.60
421;DHT22;63667;49.046;8.468;2023-04-03T15:31:32;12.10;99.60
421;DHT22;63667;49.046;8.468;2023-04-03T15:34:00;11.50;99.60
421;DHT22;63667;49.046;8.468;2023-04-03T15:36:27;10.60;99.60
421;DHT22;63667;49.046;8.468;2023-04-03T15:38:55;9.90;99.60
421;DHT22;63667;49.046;8.468;2023-04-03T15:41:23;9.30;99.60
421;DHT22;63667;49.046;8.468;2023-04-03T15:43:50;9.00;99.60
421;DHT22;63667;49.046;8.468;2023-04-03T15:46:18;9.20;99.60
421;DHT22;63667;49.046;8.468;2023-04-03T15:48:46;9.40;99.60
421;DHT22;63667;49.046;8.468;2023-04-03T15:51:14;10.00;99.60
421;DHT22;63667;49.046;8.468;2023-04-03T15:53:41;10.20;99.60
421;DHT22;63667;49.046;8.468;2023-04-03T15:56:09;10.80;99.60
421;DHT22;63667;49.046;8.468;2023-04-03T15:58:38;10.90;99.60
421;DHT22;63667;49.046;8.468;2023-04-03T16:01:06;10.60;99.60
421;DHT22;63667;49.046;8.468;2023-04-03T16:03:33;10.00;99.60
421;DHT22;63667;49.046;8.468;2023-04-03T16:06:01;9.80;99.60
421;DHT22;63667;49.046;8.468;2023-04-03T16:08:29;9.60;99.60
421;DHT22;63667;49.046;8.468;2023-04-03T16:10:56;9.20;99.60
421;DHT22;63667;49.046;8.468;2023-04-03T16:13:24;9.30;99.60
421;DHT22;63667;49.046;8.468;2023-04-03T16:15:51;9.60;99.60
421;DHT22;63667;49.046;8.468;2023-04-03T16:18:19;9.80;99.60
421;DHT22;63667;49.046;8.468;2023-04-03T16:20:47;10.10;99.60
421;DHT22;63667;49.046;8.468;2023-04-03T16:23:15;10.30;99.60
421;DHT22;63667;49.046;8.468;2023-04-03T16:25:42;10.00;99.60
421;DHT22;63667;49.046;8.468;2023-04-03T16:28:16;9.90;99.60
421;DHT22;63667;49.046;8.468;2023-04-03T16:30:45;9.40;99.60
421;DHT22;63667;49.046;8.468;2023-04-03T16:33:13;9.00;99.60
421;DHT22;63667;49.046;8.468;2023-04-03T16:35:40;8.90;99.60
421;DHT22;63667;49.046;8.468;2023-04-03T16:38:08;8.70;99.60
421;DHT22;63667;49.046;8.468;2023-04-03T16:40:36;8.50;99.60
421;DHT22;63667;49.046;8.468;2023-04-03T16:43:03;8.50;99.60
421;DHT22;63667;49.046;8.468;2023-04-03T16:45:31;8.60;99.60
421;DHT22;63667;49.046;8.468;2023-04-03T16:47:58;8.60;99.60
421;DHT22;63667;49.046;8.468;2023-04-03T16:50:26;8.70;99.60
421;DHT22;63667;49.046;8.468;2023-04-03T16:52:53;8.60;99.60
421;DHT22;63667;49.046;8.468;2023-04-03T16:55:20;8.50;99.60
421;DHT22;63667;49.046;8.468;2023-04-03T16:57:48;8.50;99.60
421;DHT22;63667;49.046;8.468;2023-04-03T17:00:16;8.50;99.60
421;DHT22;63667;49.046;8.468;2023-04-03T17:02:44;8.50;99.60
421;DHT22;63667;49.046;8.468;2023-04-03T17:05:11;8.50;99.60
421;DHT22;63667;49.046;8.468;2023-04-03T17:07:39;8.40;99.60
421;DHT22;63667;49.046;8.468;2023-04-03T17:10:08;8.30;99.60
421;DHT22;63667;49.046;8.468;2023-04-03T17:12:36;8.20;99.60
421;DHT22;63667;49.046;8.468;2023-04-03T17:15:04;8.10;99.60
421;DHT22;63667;49.046;8.468;2023-04-03T17:17:32;8.10;99.60
421;DHT22;63667;49.046;8.468;2023-04-03T17:19:59;8.00;99.60
421;DHT22;63667;49.046;8.468;2023-04-03T17:22:28;7.90;99.60
421;DHT22;63667;49.046;8.468;2023-04-03T17:24:56;7.90;99.60
421;DHT22;63667;49.046;8.468;2023-04-03T17:27:23;7.80;99.60
421;DHT22;63667;49.046;8.468;2023-04-03T17:29:51;7.70;99.60
421;DHT22;63667;49.046;8.468;2023-04-03T17:32:18;7.60;99.60
421;DHT22;63667;49.046;8.468;2023-04-03T17:34:46;7.60;99.60
421;DHT22;63667;49.046;8.468;2023-04-03T17:37:14;7.50;99.60
421;DHT22;63667;49.046;8.468;2023-04-03T17:39:41;7.40;99.60
421;DHT22;63667;49.046;8.468;2023-04-03T17:42:09;7.30;99.60
421;DHT22;63667;49.046;8.468;2023-04-03T17:44:36;7.20;99.60
421;DHT22;63667;49.046;8.468;2023-04-03T17:47:04;7.20;99.60
421;DHT22;63667;49.046;8.468;2023-04-03T17:49:31;7.20;99.60
421;DHT22;63667;49.046;8.468;2023-04-03T17:51:59;7.00;99.60
421;DHT22;63667;49.046;8.468;2023-04-03T17:54:26;6.90;99.60
421;DHT22;63667;49.046;8.468;2023-04-03T17:56:54;6.90;99.60
421;DHT22;63667;49.046;8.468;2023-04-03T17:59:22;6.90;99.60
421;DHT22;63667;49.046;8.468;2023-04-03T18:01:48;6.80;99.60
421;DHT22;63667;49.046;8.468;2023-04-03T18:04:16;6.80;99.60
421;DHT22;63667;49.046;8.468;2023-04-03T18:06:46;6.80;99.60
421;DHT22;63667;49.046;8.468;2023-04-03T18:09:18;6.80;99.60
421;DHT22;63667;49.046;8.468;2023-04-03T18:11:47;6.70;99.60
421;DHT22;63667;49.046;8.468;2023-04-03T18:14:17;6.60;99.60
421;DHT22;63667;49.046;8.468;2023-04-03T18:16:45;6.50;99.60
421;DHT22;63667;49.046;8.468;2023-04-03T18:19:12;6.50;99.60
421;DHT22;63667;49.046;8.468;2023-04-03T18:21:40;6.40;99.60
421;DHT22;63667;49.046;8.468;2023-04-03T18:24:11;6.40;99.60
421;DHT22;63667;49.046;8.468;2023-04-03T18:26:40;6.30;99.60
421;DHT22;63667;49.046;8.468;2023-04-03T18:29:10;6.20;99.60
421;DHT22;63667;49.046;8.468;2023-04-03T18:31:40;6.10;99.60
421;DHT22;63667;49.046;8.468;2023-04-03T18:34:08;6.10;99.60
421;DHT22;63667;49.046;8.468;2023-04-03T18:36:35;6.00;99.60
421;DHT22;63667;49.046;8.468;2023-04-03T18:39:03;6.00;99.60
421;DHT22;63667;49.046;8.468;2023-04-03T18:41:32;6.00;99.60
421;DHT22;63667;49.046;8.468;2023-04-03T18:44:07;6.00;99.60
421;DHT22;63667;49.046;8.468;2023-04-03T18:46:39;6.00;99.60
421;DHT22;63667;49.046;8.468;2023-04-03T18:49:08;5.90;99.60
421;DHT22;63667;49.046;8.468;2023-04-03T18:51:35;5.90;99.60
421;DHT22;63667;49.046;8.468;2023-04-03T18:54:05;5.80;99.60
421;DHT22;63667;49.046;8.468;2023-04-03T18:56:32;5.80;99.60
421;DHT22;63667;49.046;8.468;2023-04-03T18:59:00;5.80;99.60
421;DHT22;63667;49.046;8.468;2023-04-03T19:01:29;5.80;99.60
421;DHT22;63667;49.046;8.468;2023-04-03T19:03:57;5.80;99.60
421;DHT22;63667;49.046;8.468;2023-04-03T19:06:25;5.80;99.60
421;DHT22;63667;49.046;8.468;2023-04-03T19:08:52;5.80;99.60
421;DHT22;63667;49.046;8.468;2023-04-03T19:11:20;5.80;99.60
421;DHT22;63667;49.046;8.468;2023-04-03T19:13:48;5.70;99.60
421;DHT22;63667;49.046;8.468;2023-04-03T19:16:16;5.70;99.60
421;DHT22;63667;49.046;8.468;2023-04-03T19:18:47;5.70;99.60
421;DHT22;63667;49.046;8.468;2023-04-03T19:21:15;5.60;99.60
421;DHT22;63667;49.046;8.468;2023-04-03T19:23:45;5.60;99.60
421;DHT22;63667;49.046;8.468;2023-04-03T19:26:17;5.70;99.60
421;DHT22;63667;49.046;8.468;2023-04-03T19:28:48;5.60;99.60
421;DHT22;63667;49.046;8.468;2023-04-03T19:31:20;5.60;99.60
421;DHT22;63667;49.046;8.468;2023-04-03T19:33:47;5.60;99.60
421;DHT22;63667;49.046;8.468;2023-04-03T19:36:15;5.50;99.60
421;DHT22;63667;49.046;8.468;2023-04-03T19:38:52;5.50;99.60
421;DHT22;63667;49.046;8.468;2023-04-03T19:41:21;5.50;99.60
421;DHT22;63667;49.046;8.468;2023-04-03T19:43:53;5.30;99.60
421;DHT22;63667;49.046;8.468;2023-04-03T19:46:24;5.30;99.60
421;DHT22;63667;49.046;8.468;2023-04-03T19:48:52;5.30;99.60
421;DHT22;63667;49.046;8.468;2023-04-03T19:51:19;5.20;99.60
421;DHT22;63667;49.046;8.468;2023-04-03T19:53:47;5.20;99.60
421;DHT22;63667;49.046;8.468;2023-04-03T19:56:14;5.20;99.60
421;DHT22;63667;49.046;8.468;2023-04-03T19:58:42;5.10;99.60
421;DHT22;63667;49.046;8.468;2023-04-03T20:01:09;5.10;99.60
421;DHT22;63667;49.046;8.468;2023-04-03T20:03:36;5.00;99.60
421;DHT22;63667;49.046;8.468;2023-04-03T20:06:03;5.00;99.60
421;DHT22;63667;49.046;8.468;2023-04-03T20:08:29;4.90;99.60
421;DHT22;63667;49.046;8.468;2023-04-03T20:10:56;4.80;99.60
421;DHT22;63667;49.046;8.468;2023-04-03T20:13:23;4.70;99.60
421;DHT22;63667;49.046;8.468;2023-04-03T20:15:50;4.60;99.60
421;DHT22;63667;49.046;8.468;2023-04-03T20:18:19;4.50;99.60
421;DHT22;63667;49.046;8.468;2023-04-03T20:20:53;4.40;99.60
421;DHT22;63667;49.046;8.468;2023-04-03T20:23:22;4.30;99.60
421;DHT22;63667;49.046;8.468;2023-04-03T20:25:49;4.20;99.60
421;DHT22;63667;49.046;8.468;2023-04-03T20:28:17;4.10;99.60
421;DHT22;63667;49.046;8.468;2023-04-03T20:30:48;4.00;99.60
421;DHT22;63667;49.046;8.468;2023-04-03T20:33:17;4.00;99.60
421;DHT22;63667;49.046;8.468;2023-04-03T20:35:44;3.90;99.60
421;DHT22;63667;49.046;8.468;2023-04-03T20:38:13;3.90;99.60
421;DHT22;63667;49.046;8.468;2023-04-03T20:40:41;3.90;99.60
421;DHT22;63667;49.046;8.468;2023-04-03T20:43:08;3.80;99.60
421;DHT22;63667;49.046;8.468;2023-04-03T20:45:35;3.80;99.60
421;DHT22;63667;49.046;8.468;2023-04-03T20:48:05;3.80;99.60
421;DHT22;63667;49.046;8.468;2023-04-03T20:50:32;3.80;99.60
421;DHT22;63667;49.046;8.468;2023-04-03T20:53:00;3.80;99.60
421;DHT22;63667;49.046;8.468;2023-04-03T20:55:28;3.80;99.60
421;DHT22;63667;49.046;8.468;2023-04-03T20:57:57;3.70;99.60
421;DHT22;63667;49.046;8.468;2023-04-03T21:00:28;3.70;99.60
421;DHT22;63667;49.046;8.468;2023-04-03T21:02:57;3.60;99.60
421;DHT22;63667;49.046;8.468;2023-04-03T21:05:26;3.50;99.60
421;DHT22;63667;49.046;8.468;2023-04-03T21:19:40;3.30;99.60
421;DHT22;63667;49.046;8.468;2023-04-03T21:22:12;3.30;99.60
421;DHT22;63667;49.046;8.468;2023-04-03T21:24:42;3.30;99.60
421;DHT22;63667;49.046;8.468;2023-04-03T21:27:09;3.30;99.60
421;DHT22;63667;49.046;8.468;2023-04-03T21:29:37;3.30;99.60
421;DHT22;63667;49.046;8.468;2023-04-03T21:32:05;3.30;99.60
421;DHT22;63667;49.046;8.468;2023-04-03T21:34:33;3.40;99.60
421;DHT22;63667;49.046;8.468;2023-04-03T21:37:05;3.30;99.60
421;DHT22;63667;49.046;8.468;2023-04-03T21:39:32;3.40;99.60
421;DHT22;63667;49.046;8.468;2023-04-03T21:42:00;3.40;99.60
421;DHT22;63667;49.046;8.468;2023-04-03T21:44:28;3.40;99.60
421;DHT22;63667;49.046;8.468;2023-04-03T21:46:55;3.30;99.60
421;DHT22;63667;49.046;8.468;2023-04-03T21:49:23;3.30;99.60
421;DHT22;63667;49.046;8.468;2023-04-03T21:51:50;3.30;99.60
421;DHT22;63667;49.046;8.468;2023-04-03T21:54:18;3.40;99.60
421;DHT22;63667;49.046;8.468;2023-04-03T21:56:45;3.50;99.60
421;DHT22;63667;49.046;8.468;2023-04-03T21:59:16;3.50;99.60
421;DHT22;63667;49.046;8.468;2023-04-03T22:01:42;3.50;99.60
421;DHT22;63667;49.046;8.468;2023-04-03T22:04:09;3.50;99.60
421;DHT22;63667;49.046;8.468;2023-04-03T22:06:36;3.50;99.60
421;DHT22;63667;49.046;8.468;2023-04-03T22:09:03;3.50;99.60
421;DHT22;63667;49.046;8.468;2023-04-03T22:11:29;3.50;99.60
421;DHT22;63667;49.046;8.468;2023-04-03T22:16:22;3.40;99.60
421;DHT22;63667;49.046;8.468;2023-04-03T22:18:51;3.40;99.60
421;DHT22;63667;49.046;8.468;2023-04-03T22:21:17;3.40;99.60
421;DHT22;63667;49.046;8.468;2023-04-03T22:23:44;3.40;99.60
421;DHT22;63667;49.046;8.468;2023-04-03T22:26:11;3.30;99.60
421;DHT22;63667;49.046;8.468;2023-04-03T22:28:57;3.30;99.60
421;DHT22;63667;49.046;8.468;2023-04-03T22:31:25;3.30;99.60
421;DHT22;63667;49.046;8.468;2023-04-03T22:33:52;3.30;99.60
421;DHT22;63667;49.046;8.468;2023-04-03T22:36:22;3.30;99.60
421;DHT22;63667;49.046;8.468;2023-04-03T22:38:48;3.30;99.60
421;DHT22;63667;49.046;8.468;2023-04-03T22:41:15;3.20;99.60
421;DHT22;63667;49.046;8.468;2023-04-03T22:43:41;3.20;99.60
421;DHT22;63667;49.046;8.468;2023-04-03T22:46:08;3.20;99.60
421;DHT22;63667;49.046;8.468;2023-04-03T22:48:39;3.20;99.60
421;DHT22;63667;49.046;8.468;2023-04-03T22:51:08;3.10;99.60
421;DHT22;63667;49.046;8.468;2023-04-03T22:53:35;3.10;99.60
421;DHT22;63667;49.046;8.468;2023-04-03T22:56:04;3.10;99.60
421;DHT22;63667;49.046;8.468;2023-04-03T22:58:33;3.10;99.60
421;DHT22;63667;49.046;8.468;2023-04-03T23:03:31;3.00;99.60
421;DHT22;63667;49.046;8.468;2023-04-03T23:05:57;3.00;99.60
421;DHT22;63667;49.046;8.468;2023-04-03T23:08:25;3.00;99.60
421;DHT22;63667;49.046;8.468;2023-04-03T23:10:54;2.90;99.60
421;DHT22;63667;49.046;8.468;2023-04-03T23:13:23;2.80;99.60
421;DHT22;63667;49.046;8.468;2023-04-03T23:15:54;2.80;99.60
421;DHT22;63667;49.046;8.468;2023-04-03T23:18:21;2.80;99.60
421;DHT22;63667;49.046;8.468;2023-04-03T23:20:48;2.80;99.60
421;DHT22;63667;49.046;8.468;2023-04-03T23:23:21;2.70;99.60
421;DHT22;63667;49.046;8.468;2023-04-03T23:25:52;2.70;99.60
421;DHT22;63667;49.046;8.468;2023-04-03T23:28:20;2.60;99.60
421;DHT22;63667;49.046;8.468;2023-04-03T23:30:48;2.50;99.60
421;DHT22;63667;49.046;8.468;2023-04-03T23:33:17;2.60;99.60
421;DHT22;63667;49.046;8.468;2023-04-03T23:35:45;2.50;99.60
421;DHT22;63667;49.046;8.468;2023-04-03T23:38:15;2.40;99.60
421;DHT22;63667;49.046;8.468;2023-04-03T23:40:42;2.30;99.60
421;DHT22;63667;49.046;8.468;2023-04-03T23:43:09;2.30;99.60
421;DHT22;63667;49.046;8.468;2023-04-03T23:45:38;2.30;99.60
421;DHT22;63667;49.046;8.468;2023-04-03T23:48:04;2.30;99.60
421;DHT22;63667;49.046;8.468;2023-04-03T23:50:32;2.20;99.60
421;DHT22;63667;49.046;8.468;2023-04-03T23:52:59;2.20;99.60
421;DHT22;63667;49.046;8.468;2023-04-03T23:55:27;2.10;99.60
421;DHT22;63667;49.046;8.468;2023-04-03T23:57:54;2.00;99.60
